Time;durP1;ratioP1;P1;durP2;ratioP2;P2;SDS_P1;SDS_P2;PMS_P1;PMS_P2;Temp;Humidity;BMP_temperature;BMP_pressure;BME280_temperature;BME280_humidity;BME280_pressure;Samples;Min_cycle;Max_cycle;Signal;HPM_P1;HPM_P2
2022/12/30 00:00:39;;;;;;;125.28;75.78;;;;;;;3.59;88.78;98408.50;10363765;28;20060;-52
2022/12/30 00:05:38;;;;;;;;;;;;;;;3.65;88.96;98416.41;10373726;28;20084;-50
2022/12/30 00:10:37;;;;;;;112.18;66.80;;;;;;;3.75;88.92;98427.88;10371462;28;19931;-53
2022/12/30 00:36:56;;;;;;;104.53;62.97;;;;;;;4.05;88.01;98422.97;10369850;28;20064;-52
2022/12/30 00:47:13;;;;;;;90.30;55.70;;;;;;;4.04;87.81;98416.97;10394518;28;20065;-49
2022/12/30 00:57:29;;;;;;;111.05;66.55;;;;;;;3.65;89.10;98412.13;10378342;28;19963;-50
2022/12/30 01:02:28;;;;;;;112.47;65.85;;;;;;;3.63;88.58;98402.63;10377124;28;20033;-52
2022/12/30 01:07:28;;;;;;;91.18;56.47;;;;;;;3.53;89.72;98415.97;10378276;28;20111;-52
2022/12/30 01:12:28;;;;;;;81.88;52.58;;;;;;;3.56;88.83;98406.66;10379238;28;20073;-52
2022/12/30 01:17:31;;;;;;;85.10;53.35;;;;;;;3.56;88.65;98405.78;10378163;28;20570;-52
2022/12/30 01:22:30;;;;;;;82.95;50.80;;;;;;;3.57;89.17;98397.28;10385898;28;20572;-51
2022/12/30 01:27:30;;;;;;;81.85;49.65;;;;;;;3.65;89.01;98396.75;10382259;28;20068;-50
2022/12/30 01:32:30;;;;;;;73.30;46.63;;;;;;;3.70;88.85;98394.34;10378637;28;20076;-53
2022/12/30 01:37:31;;;;;;;79.10;49.10;;;;;;;3.71;88.92;98390.97;10377018;28;20072;-52
2022/12/30 01:42:37;;;;;;;85.10;51.22;;;;;;;3.72;88.88;98392.72;10375961;28;20547;-50
2022/12/30 01:47:42;;;;;;;81.47;48.05;;;;;;;3.71;89.15;98393.53;10376470;28;20131;-50
2022/12/30 01:52:58;;;;;;;79.53;50.08;;;;;;;3.73;89.63;98389.34;10375840;28;20069;-52
2022/12/30 01:58:00;;;;;;;86.93;54.22;;;;;;;3.73;89.45;98384.19;10345225;28;20111;-52
2022/12/30 02:03:00;;;;;;;93.63;55.97;;;;;;;3.75;89.61;98381.66;10374809;28;20056;-51
2022/12/30 02:08:16;;;;;;;;;;;;;;;3.71;89.71;98383.28;10377584;28;20080;-53
2022/12/30 02:13:17;;;;;;;96.35;58.17;;;;;;;3.70;89.88;98376.38;10376930;28;19956;-52
2022/12/30 02:18:28;;;;;;;110.60;61.50;;;;;;;3.82;89.59;98381.06;10373086;28;20088;-52
2022/12/30 02:24:05;;;;;;;92.53;55.40;;;;;;;3.90;89.41;98368.53;10369396;28;20067;-51
2022/12/30 02:29:25;;;;;;;81.95;49.38;;;;;;;3.89;89.52;98374.47;10366071;28;20048;-49
2022/12/30 02:34:39;;;;;;;76.15;46.65;;;;;;;3.95;89.45;98372.13;10347264;28;20064;-52
2022/12/30 02:39:49;;;;;;;74.15;45.33;;;;;;;4.05;89.14;98362.19;10375943;28;20079;-51
2022/12/30 02:45:04;;;;;;;77.85;47.60;;;;;;;4.07;89.33;98368.28;10373116;28;20091;-52
2022/12/30 02:55:38;;;;;;;76.60;46.72;;;;;;;3.98;89.34;98364.50;10371603;28;20065;-50
2022/12/30 03:06:18;;;;;;;71.95;45.17;;;;;;;3.89;89.58;98359.06;10358814;28;20072;-52
2022/12/30 03:11:18;;;;;;;70.22;43.67;;;;;;;3.92;89.00;98359.19;10371142;28;20136;-50
2022/12/30 03:16:41;;;;;;;67.13;38.92;;;;;;;3.94;88.93;98355.84;10372343;28;20079;-49
2022/12/30 03:21:42;;;;;;;50.53;29.95;;;;;;;3.99;88.86;98356.00;10375149;28;20531;-52
2022/12/30 03:32:01;;;;;;;52.17;31.48;;;;;;;4.02;88.92;98366.38;10369880;28;20723;-50
2022/12/30 03:37:19;;;;;;;50.05;29.45;;;;;;;4.04;88.94;98369.88;10370754;28;20480;-53
2022/12/30 03:42:19;;;;;;;41.53;24.98;;;;;;;4.10;88.63;98369.19;10372063;28;20761;-54
2022/12/30 03:47:19;;;;;;;36.35;21.52;;;;;;;4.10;88.98;98370.06;10374193;28;20069;-51
2022/12/30 03:52:20;;;;;;;32.05;19.95;;;;;;;4.16;89.27;98374.56;10368432;28;20116;-51
2022/12/30 03:57:19;;;;;;;36.92;22.10;;;;;;;4.19;89.00;98380.66;10373273;28;20076;-52
2022/12/30 04:02:18;;;;;;;32.83;20.27;;;;;;;4.23;89.00;98377.38;10371579;28;20032;-53
2022/12/30 04:07:17;;;;;;;35.25;22.05;;;;;;;4.32;88.83;98386.25;10366250;28;20069;-52
2022/12/30 04:12:16;;;;;;;29.92;19.17;;;;;;;4.32;88.45;98388.81;10360865;28;20091;-53
2022/12/30 04:17:15;;;;;;;39.97;25.02;;;;;;;4.31;88.18;98395.63;10367679;28;20085;-52
2022/12/30 04:22:14;;;;;;;39.92;22.40;;;;;;;4.31;87.79;98399.88;10371575;28;20137;-50
2022/12/30 04:27:13;;;;;;;42.83;24.80;;;;;;;4.27;87.80;98402.38;10373145;28;20068;-51
2022/12/30 04:32:12;;;;;;;45.13;26.23;;;;;;;4.28;87.84;98406.66;10368886;28;20041;-52
2022/12/30 04:37:11;;;;;;;48.67;30.00;;;;;;;4.24;87.61;98384.28;10371417;28;20044;-53
2022/12/30 04:42:10;;;;;;;43.55;28.55;;;;;;;4.16;87.79;98408.81;10370917;28;20033;-51
2022/12/30 04:47:09;;;;;;;47.97;29.90;;;;;;;4.23;87.79;98400.50;10372410;28;20529;-50
2022/12/30 04:52:08;;;;;;;55.42;37.00;;;;;;;4.20;87.35;98410.69;10370241;28;20547;-52
2022/12/30 04:57:07;;;;;;;50.85;32.35;;;;;;;4.18;87.47;98416.59;10370681;28;20404;-52
2022/12/30 05:02:06;;;;;;;56.05;32.63;;;;;;;4.04;87.17;98411.84;10371099;28;20041;-49
2022/12/30 05:07:05;;;;;;;62.65;38.83;;;;;;;4.02;87.31;98421.16;10371730;28;20655;-50
2022/12/30 05:12:04;;;;;;;56.05;34.63;;;;;;;3.95;87.35;98431.19;10370055;28;20037;-52
2022/12/30 05:17:03;;;;;;;56.10;35.03;;;;;;;3.90;87.32;98428.44;10364038;28;20081;-50
2022/12/30 05:22:02;;;;;;;61.03;37.67;;;;;;;3.83;87.30;98431.63;10366120;28;20052;-52
2022/12/30 05:27:01;;;;;;;75.93;41.63;;;;;;;3.69;87.78;98432.81;10371669;28;20056;-52
2022/12/30 05:32:00;;;;;;;65.82;37.08;;;;;;;3.64;87.66;98432.63;10370890;28;20087;-52
2022/12/30 05:36:59;;;;;;;71.00;39.03;;;;;;;3.67;88.32;98440.44;10377682;28;20043;-54
2022/12/30 05:41:58;;;;;;;50.38;30.73;;;;;;;3.63;88.37;98439.44;10377117;28;20025;-50
2022/12/30 05:46:58;;;;;;;60.30;34.97;;;;;;;3.67;88.83;98444.69;10385496;28;20067;-52
2022/12/30 05:51:56;;;;;;;61.55;34.40;;;;;;;3.69;89.12;98437.94;10437921;28;20075;-52
2022/12/30 05:56:55;;;;;;;60.88;35.47;;;;;;;3.72;88.70;98454.31;10428933;28;20078;-50
2022/12/30 06:01:54;;;;;;;71.22;37.65;;;;;;;3.72;88.52;98450.88;10439112;28;20042;-52
2022/12/30 06:06:53;;;;;;;58.15;32.15;;;;;;;3.65;89.01;98458.34;10456454;28;20035;-51
2022/12/30 06:11:52;;;;;;;45.70;24.50;;;;;;;3.72;89.13;98453.44;10487931;28;20031;-52
2022/12/30 06:16:51;;;;;;;31.70;19.60;;;;;;;3.79;89.25;98461.41;10442534;28;20555;-51
2022/12/30 06:21:50;;;;;;;31.67;20.17;;;;;;;3.94;88.91;98465.38;10443486;28;20525;-51
2022/12/30 06:26:49;;;;;;;53.92;27.98;;;;;;;4.05;88.71;98464.94;10455332;28;20671;-52
2022/12/30 06:31:48;;;;;;;122.88;50.38;;;;;;;4.28;88.18;98467.47;10436383;28;20111;-52
2022/12/30 06:36:47;;;;;;;86.95;39.97;;;;;;;4.41;87.44;98484.19;10453940;28;20142;-52
2022/12/30 06:41:46;;;;;;;67.25;37.67;;;;;;;4.34;86.98;98484.78;10440907;28;20107;-50
2022/12/30 06:46:45;;;;;;;74.55;39.88;;;;;;;4.36;86.74;98476.31;10430110;28;20116;-52
2022/12/30 06:51:44;;;;;;;94.25;49.22;;;;;;;4.44;86.60;98486.88;10441993;28;20047;-52
2022/12/30 06:56:42;;;;;;;96.57;49.97;;;;;;;4.53;86.36;98483.75;10436836;28;20071;-49
2022/12/30 07:01:41;;;;;;;103.25;57.70;;;;;;;4.64;86.30;98479.81;10417991;28;20111;-52
2022/12/30 07:06:40;;;;;;;90.75;50.50;;;;;;;4.71;86.23;98485.25;10421784;28;20119;-53
2022/12/30 07:11:39;;;;;;;78.70;46.15;;;;;;;4.80;86.32;98484.66;10454428;28;20112;-49
2022/12/30 07:16:38;;;;;;;69.57;43.47;;;;;;;4.96;85.94;98488.66;10456565;28;20067;-52
2022/12/30 07:21:38;;;;;;;71.93;45.25;;;;;;;5.20;86.05;98490.28;10452768;28;20127;-55
2022/12/30 07:26:37;;;;;;;107.13;70.20;;;;;;;5.32;85.35;98491.56;10453874;28;20064;-52
2022/12/30 07:31:35;;;;;;;89.13;61.50;;;;;;;5.54;85.32;98495.66;10453387;28;20104;-51
2022/12/30 07:36:34;;;;;;;80.70;55.40;;;;;;;5.78;84.95;98504.94;10440494;28;20038;-52
2022/12/30 07:41:33;;;;;;;77.20;53.78;;;;;;;6.03;84.56;98492.81;10451921;28;20107;-52
2022/12/30 07:46:33;;;;;;;80.32;55.10;;;;;;;6.29;83.80;98498.69;10439097;28;20070;-53
2022/12/30 07:51:32;;;;;;;71.15;48.85;;;;;;;6.54;82.72;98484.78;10417586;28;20083;-52
2022/12/30 07:56:31;;;;;;;52.50;37.90;;;;;;;6.79;82.05;98502.63;10426627;28;20036;-52
2022/12/30 08:01:30;;;;;;;43.42;30.48;;;;;;;7.08;80.29;98492.19;10436497;28;20068;-52
2022/12/30 08:06:29;;;;;;;100.32;60.72;;;;;;;7.39;79.71;98496.34;10431771;28;20082;-52
2022/12/30 08:11:28;;;;;;;49.75;38.17;;;;;;;7.60;78.09;98498.59;10437423;28;20124;-50
2022/12/30 08:16:27;;;;;;;56.47;37.65;;;;;;;7.88;76.54;98505.25;10440282;28;20119;-52
2022/12/30 08:21:26;;;;;;;56.70;39.00;;;;;;;8.21;76.32;98495.59;10440585;28;20052;-52
2022/12/30 08:26:25;;;;;;;68.53;45.75;;;;;;;8.39;74.25;98485.63;10437320;28;20047;-52
2022/12/30 08:31:27;;;;;;;80.60;57.50;;;;;;;8.71;73.72;98490.50;10442477;28;20548;-50
2022/12/30 08:36:27;;;;;;;58.72;41.38;;;;;;;8.96;72.35;98491.81;10450602;28;20114;-52
2022/12/30 08:41:30;;;;;;;32.47;21.75;;;;;;;9.33;71.87;98490.75;10439744;28;20447;-52
2022/12/30 08:46:31;;;;;;;55.00;34.53;;;;;;;9.64;70.04;98488.59;10412543;28;20067;-51
2022/12/30 08:51:30;;;;;;;51.25;30.88;;;;;;;9.96;67.90;98494.25;10445705;28;20550;-51
2022/12/30 08:56:32;;;;;;;36.88;27.48;;;;;;;10.36;65.42;98483.50;10431521;28;20136;-52
2022/12/30 09:01:36;;;;;;;28.55;22.10;;;;;;;10.64;62.73;98476.03;10438609;28;20130;-53
2022/12/30 09:06:38;;;;;;;12.50;7.38;;;;;;;10.81;60.59;98482.25;10441581;28;20155;-51
2022/12/30 09:11:39;;;;;;;54.33;39.15;;;;;;;11.14;59.06;98463.50;10448291;28;20127;-52
2022/12/30 09:16:38;;;;;;;88.90;59.95;;;;;;;11.35;56.79;98470.59;10457267;28;20067;-52
2022/12/30 09:21:37;;;;;;;53.10;29.10;;;;;;;11.67;55.80;98470.84;10453770;28;20071;-51
2022/12/30 09:26:36;;;;;;;88.43;42.47;;;;;;;11.78;54.49;98457.91;10440946;28;20123;-51
2022/12/30 09:31:35;;;;;;;44.97;36.42;;;;;;;12.05;55.65;98464.94;10433973;28;20040;-52
2022/12/30 09:36:34;;;;;;;16.45;13.77;;;;;;;12.15;55.14;98450.25;10439586;28;20111;-53
2022/12/30 09:47:16;;;;;;;;;;;;;;;12.21;53.50;98439.00;10437594;28;20075;-51
2022/12/30 09:52:47;;;;;;;17.95;9.98;;;;;;;12.26;53.36;98435.53;10444375;28;20030;-52
2022/12/30 09:57:51;;;;;;;91.97;65.03;;;;;;;12.38;52.79;98426.06;10443407;28;20074;-52
2022/12/30 10:03:17;;;;;;;31.63;21.75;;;;;;;12.51;51.91;98427.84;10404537;28;20123;-52
2022/12/30 10:08:25;;;;;;;17.13;11.45;;;;;;;12.55;50.99;98420.91;10364316;28;20151;-52
2022/12/30 10:13:24;;;;;;;23.75;18.23;;;;;;;12.64;49.55;98400.94;10360774;28;20112;-53
2022/12/30 10:18:35;;;;;;;14.95;9.55;;;;;;;12.77;50.77;98407.06;10351096;28;20052;-53
2022/12/30 10:23:43;;;;;;;13.95;10.55;;;;;;;12.92;49.64;98400.97;10408944;28;20122;-51
2022/12/30 10:28:47;;;;;;;12.38;6.50;;;;;;;13.09;49.47;98398.34;10392902;28;20820;-52
2022/12/30 10:33:49;;;;;;;13.05;6.63;;;;;;;13.12;48.81;98391.41;10386884;28;20702;-53
2022/12/30 10:38:48;;;;;;;17.08;10.05;;;;;;;13.27;48.71;98394.88;10392885;28;20064;-52
2022/12/30 10:44:11;;;;;;;21.05;10.55;;;;;;;13.34;48.38;98397.44;10393862;28;20028;-52
2022/12/30 10:49:31;;;;;;;30.90;19.70;;;;;;;13.35;47.38;98388.78;10400599;28;20450;-52
2022/12/30 10:54:30;;;;;;;13.65;8.52;;;;;;;13.39;47.31;98381.81;10387003;28;20526;-52
2022/12/30 10:59:34;;;;;;;14.38;11.70;;;;;;;13.43;47.11;98374.84;10388750;28;20550;-52
2022/12/30 11:04:40;;;;;;;14.48;7.28;;;;;;;13.51;47.40;98373.06;10383395;28;20125;-51
2022/12/30 11:09:40;;;;;;;12.45;7.07;;;;;;;13.47;47.07;98364.41;10394324;28;20120;-52
2022/12/30 11:14:42;;;;;;;138.27;92.97;;;;;;;13.52;46.92;98361.78;10401348;28;20083;-53
2022/12/30 11:19:43;;;;;;;15.82;9.85;;;;;;;13.50;45.97;98356.56;10398228;28;20530;-53
2022/12/30 11:24:58;;;;;;;21.25;14.48;;;;;;;13.48;45.52;98350.50;10411113;28;20062;-54
2022/12/30 11:29:57;;;;;;;22.23;13.32;;;;;;;13.59;46.20;98360.06;10405558;28;20068;-53
2022/12/30 11:34:56;;;;;;;82.32;46.00;;;;;;;13.56;45.31;98359.22;10397593;28;20032;-54
2022/12/30 11:39:55;;;;;;;48.25;24.20;;;;;;;13.65;45.74;98357.44;10402207;28;20044;-54
2022/12/30 11:45:15;;;;;;;17.05;9.43;;;;;;;13.66;45.76;98347.00;10376835;28;20032;-52
2022/12/30 11:50:19;;;;;;;27.33;12.73;;;;;;;13.61;44.83;98353.09;10375654;28;20075;-51
2022/12/30 11:55:24;;;;;;;39.10;16.23;;;;;;;13.60;45.32;98348.75;10371012;28;20128;-52
2022/12/30 12:00:33;;;;;;;17.05;9.02;;;;;;;13.67;45.73;98353.94;10379980;28;20520;-52
2022/12/30 12:05:39;;;;;;;16.30;7.95;;;;;;;13.59;45.01;98352.25;10375944;28;20076;-53
2022/12/30 12:10:40;;;;;;;21.30;10.45;;;;;;;13.54;45.05;98342.69;10399402;28;20072;-56
2022/12/30 12:15:44;;;;;;;14.38;7.38;;;;;;;13.58;44.99;98356.56;10383919;28;20112;-54
2022/12/30 12:21:14;;;;;;;18.02;10.30;;;;;;;13.59;45.51;98354.84;10379676;28;20511;-54
2022/12/30 12:26:22;;;;;;;21.08;10.88;;;;;;;13.54;44.83;98349.66;10379087;28;20075;-52
2022/12/30 12:31:39;;;;;;;22.40;11.82;;;;;;;13.50;44.58;98348.75;10400312;28;20068;-52
2022/12/30 12:37:12;;;;;;;20.20;10.52;;;;;;;13.44;44.65;98342.69;10399667;28;20535;-54
2022/12/30 12:42:21;;;;;;;20.10;10.32;;;;;;;13.36;44.61;98338.38;10383743;28;20067;-51
2022/12/30 12:47:36;;;;;;;27.77;13.75;;;;;;;13.42;44.80;98347.91;10383189;28;20123;-50
2022/12/30 12:52:55;;;;;;;36.55;15.88;;;;;;;13.38;44.40;98346.19;10415640;28;20100;-52
2022/12/30 12:58:15;;;;;;;55.63;30.37;;;;;;;13.41;44.99;98348.78;10387978;28;20501;-52
2022/12/30 13:03:33;;;;;;;;;;;;;;;13.37;44.66;98349.66;10375339;28;20299;-54
2022/12/30 13:09:17;;;;;;;20.65;12.95;;;;;;;13.38;44.82;98368.78;10391487;28;20014;-53
2022/12/30 13:14:42;;;;;;;22.90;13.38;;;;;;;13.35;45.10;98369.63;10403636;28;20083;-54
2022/12/30 13:19:50;;;;;;;20.00;15.48;;;;;;;13.34;44.78;98370.53;10397349;28;20581;-53
2022/12/30 13:24:53;;;;;;;18.27;11.43;;;;;;;13.36;44.51;98369.66;10391461;28;20068;-52
2022/12/30 13:29:53;;;;;;;23.58;15.00;;;;;;;13.39;44.56;98379.19;10394474;28;20571;-51
2022/12/30 13:34:57;;;;;;;25.38;17.17;;;;;;;13.38;44.65;98380.06;10398000;28;20083;-52
2022/12/30 13:40:09;;;;;;;14.27;7.50;;;;;;;13.26;45.23;98394.00;10414267;28;20491;-52
2022/12/30 13:45:27;;;;;;;39.03;17.40;;;;;;;13.23;45.02;98391.38;10393246;28;20515;-52
2022/12/30 13:50:28;;;;;;;25.88;15.10;;;;;;;13.07;45.04;98367.09;10380414;28;20479;-54
2022/12/30 13:55:47;;;;;;;18.40;10.35;;;;;;;13.18;45.35;98385.31;10401147;28;20546;-53
2022/12/30 14:01:06;;;;;;;23.73;12.68;;;;;;;13.08;45.65;98392.28;10393906;28;20931;-54
2022/12/30 14:06:41;;;;;;;24.88;11.85;;;;;;;13.06;45.55;98388.81;10389288;28;20472;-53
2022/12/30 14:12:07;;;;;;;16.48;9.48;;;;;;;12.97;45.67;98378.38;10372050;28;20072;-54
2022/12/30 14:17:15;;;;;;;57.58;33.72;;;;;;;12.76;45.62;98384.47;10407587;28;20090;-53
2022/12/30 14:22:39;;;;;;;37.05;26.27;;;;;;;12.70;45.98;98405.31;10369671;28;20559;-54
2022/12/30 14:27:45;;;;;;;47.55;36.35;;;;;;;12.52;46.57;98407.00;10406005;28;20091;-54
2022/12/30 14:32:44;;;;;;;21.05;14.23;;;;;;;12.35;46.67;98402.66;10406120;28;20578;-54
2022/12/30 14:37:44;;;;;;;41.75;27.50;;;;;;;12.20;46.68;98403.44;10388753;28;20067;-53
2022/12/30 14:42:52;;;;;;;59.85;38.45;;;;;;;12.07;46.84;98406.00;10404700;28;20507;-54
2022/12/30 14:47:52;;;;;;;102.17;59.87;;;;;;;11.98;46.90;98400.75;10385532;28;20067;-51
2022/12/30 14:53:03;;;;;;;29.63;18.45;;;;;;;11.85;47.39;98410.25;10391098;28;20512;-55
2022/12/30 14:58:15;;;;;;;23.50;13.98;;;;;;;11.64;47.13;98399.72;10392176;28;20083;-53
2022/12/30 15:03:17;;;;;;;21.38;13.48;;;;;;;11.53;47.96;98404.91;10411922;28;20347;-53
2022/12/30 15:08:17;;;;;;;22.35;14.45;;;;;;;11.33;48.59;98409.09;10410422;28;20067;-51
2022/12/30 15:13:42;;;;;;;27.60;18.55;;;;;;;11.04;48.98;98415.81;10397810;28;20079;-50
2022/12/30 15:18:53;;;;;;;108.47;81.28;;;;;;;10.90;49.60;98427.84;10378272;28;20090;-53
2022/12/30 15:24:01;;;;;;;30.20;20.85;;;;;;;10.79;49.60;98432.03;10389355;28;20064;-53
2022/12/30 15:29:14;;;;;;;42.15;27.17;;;;;;;10.65;50.23;98441.41;10407100;28;20060;-53
2022/12/30 15:34:18;;;;;;;29.55;18.52;;;;;;;10.43;51.05;98451.56;10375239;28;20144;-53
2022/12/30 15:39:19;;;;;;;48.17;36.40;;;;;;;10.25;51.39;98464.34;10384501;28;20491;-53
2022/12/30 15:44:20;;;;;;;45.78;30.75;;;;;;;9.99;53.12;98473.53;10380175;28;20060;-53
2022/12/30 15:49:22;;;;;;;31.40;18.80;;;;;;;9.81;53.94;98475.88;10430153;28;20139;-52
2022/12/30 15:54:30;;;;;;;30.95;23.75;;;;;;;9.60;54.16;98475.59;10444467;28;20615;-51
2022/12/30 15:59:39;;;;;;;26.45;16.13;;;;;;;9.47;54.51;98484.91;10417362;28;20083;-51
2022/12/30 16:04:43;;;;;;;32.30;22.13;;;;;;;9.41;54.73;98488.25;10439957;28;20478;-53
2022/12/30 16:09:46;;;;;;;42.92;28.52;;;;;;;9.23;55.99;98485.34;10438833;28;20068;-54
2022/12/30 16:14:54;;;;;;;48.75;32.75;;;;;;;9.01;56.59;98497.06;10454223;28;20290;-52
2022/12/30 16:19:54;;;;;;;68.13;45.30;;;;;;;8.73;57.44;98499.16;10439027;28;20095;-53
2022/12/30 16:25:01;;;;;;;64.10;40.00;;;;;;;8.60;57.58;98499.78;10433634;28;20694;-51
2022/12/30 16:30:28;;;;;;;55.13;38.15;;;;;;;8.47;58.00;98502.13;10453758;28;20067;-54
2022/12/30 16:35:27;;;;;;;70.30;46.85;;;;;;;8.29;58.90;98513.00;10444658;28;20071;-53
2022/12/30 16:40:27;;;;;;;59.17;34.80;;;;;;;8.15;59.40;98508.38;10428913;28;20468;-53
2022/12/30 16:45:26;;;;;;;53.45;31.98;;;;;;;7.99;59.74;98508.06;10445051;28;20127;-53
2022/12/30 16:50:25;;;;;;;67.72;45.08;;;;;;;7.97;59.72;98522.69;10449661;28;20075;-52
2022/12/30 16:55:24;;;;;;;62.97;43.60;;;;;;;7.87;60.51;98518.13;10445203;28;20487;-55
2022/12/30 17:00:25;;;;;;;64.35;41.22;;;;;;;7.66;61.31;98527.16;10414155;28;20597;-53
2022/12/30 17:05:25;;;;;;;65.80;43.28;;;;;;;7.54;62.12;98538.91;10444120;28;20467;-53
2022/12/30 17:15:41;;;;;;;58.10;35.25;;;;;;;7.31;63.24;98541.78;10430727;28;20063;-53
2022/12/30 17:20:47;;;;;;;72.47;49.13;;;;;;;7.20;63.76;98554.41;10445344;28;20052;-51
2022/12/30 17:25:48;;;;;;;58.53;37.67;;;;;;;7.05;64.42;98548.84;10425063;28;20114;-54
2022/12/30 17:30:47;;;;;;;58.25;33.40;;;;;;;6.94;65.62;98537.41;10443222;28;20059;-53
2022/12/30 17:35:46;;;;;;;27.70;17.35;;;;;;;6.94;66.38;98537.41;10452642;28;20068;-51
2022/12/30 17:40:45;;;;;;;55.05;32.28;;;;;;;7.09;65.88;98537.78;10438192;28;20102;-52
2022/12/30 17:45:48;;;;;;;100.55;67.10;;;;;;;7.01;66.55;98554.78;10440447;28;20047;-51
2022/12/30 17:50:47;;;;;;;94.40;63.13;;;;;;;6.82;67.02;98544.00;10444183;28;20071;-53
2022/12/30 17:55:47;;;;;;;128.18;83.82;;;;;;;6.56;67.59;98557.88;10450718;28;20032;-53
2022/12/30 18:00:46;;;;;;;118.57;80.25;;;;;;;6.41;68.25;98535.13;10435400;28;20072;-52
2022/12/30 18:05:48;;;;;;;107.13;72.13;;;;;;;6.36;68.01;98547.88;10434224;28;20068;-53
2022/12/30 18:10:56;;;;;;;107.78;73.97;;;;;;;6.32;68.12;98565.78;10436524;28;20082;-52
2022/12/30 18:15:55;;;;;;;91.63;58.90;;;;;;;6.17;69.81;98563.66;10441720;28;20108;-51
2022/12/30 18:20:54;;;;;;;128.15;89.07;;;;;;;5.99;71.52;98582.00;10452913;28;20468;-53
2022/12/30 18:25:54;;;;;;;203.63;138.88;;;;;;;5.84;71.69;98585.00;10436367;28;20383;-51
2022/12/30 18:30:54;;;;;;;149.05;101.65;;;;;;;5.74;71.45;98594.13;10423600;28;20080;-52
2022/12/30 18:35:53;;;;;;;142.93;97.88;;;;;;;5.68;71.09;98598.22;10445697;28;20079;-51
2022/12/30 18:40:52;;;;;;;127.57;84.40;;;;;;;5.61;71.80;98596.28;10428600;28;20100;-51
2022/12/30 18:45:52;;;;;;;119.88;78.35;;;;;;;5.54;72.09;98601.22;10459212;28;20131;-52
2022/12/30 18:50:56;;;;;;;148.43;98.60;;;;;;;5.49;72.55;98592.47;10428810;28;20083;-50
2022/12/30 18:56:06;;;;;;;188.55;124.40;;;;;;;5.30;74.42;98584.97;10443140;28;20793;-52
2022/12/30 19:01:08;;;;;;;123.63;78.90;;;;;;;5.27;74.89;98583.16;10430710;28;20174;-53
2022/12/30 19:06:07;;;;;;;121.03;81.78;;;;;;;5.28;75.10;98582.34;10446031;28;20052;-52
2022/12/30 19:11:18;;;;;;;125.78;82.10;;;;;;;5.30;74.98;98595.28;10424193;28;20044;-51
2022/12/30 19:16:26;;;;;;;104.43;73.25;;;;;;;5.22;75.27;98574.41;10435602;28;20582;-52
2022/12/30 19:21:28;;;;;;;183.45;118.10;;;;;;;5.34;74.67;98579.09;10442604;28;20086;-52
2022/12/30 19:26:28;;;;;;;117.20;81.72;;;;;;;5.27;75.28;98584.84;10436860;28;20095;-50
2022/12/30 19:31:31;;;;;;;121.75;81.45;;;;;;;5.26;75.20;98595.97;10419944;28;20075;-51
2022/12/30 19:36:34;;;;;;;120.97;77.20;;;;;;;5.28;75.37;98592.63;10444950;28;20080;-56
2022/12/30 19:41:35;;;;;;;115.28;76.80;;;;;;;5.30;75.16;98590.13;10434505;28;20690;-52
2022/12/30 19:46:36;;;;;;;107.20;73.22;;;;;;;5.34;74.80;98598.00;10435430;28;20485;-54
2022/12/30 19:51:36;;;;;;;226.40;129.13;;;;;;;5.35;75.59;98601.44;10419890;28;20165;-53
2022/12/30 19:56:35;;;;;;;215.95;125.75;;;;;;;5.42;75.60;98603.38;10434949;28;20067;-52
2022/12/30 20:01:36;;;;;;;150.10;98.25;;;;;;;5.48;75.45;98597.56;10429160;28;20020;-52
2022/12/30 20:06:38;;;;;;;143.00;90.85;;;;;;;5.51;75.55;98608.84;10433889;28;20111;-53
2022/12/30 20:11:38;;;;;;;138.02;89.88;;;;;;;5.57;75.40;98617.59;10422516;28;20119;-52
2022/12/30 20:16:40;;;;;;;171.80;97.88;;;;;;;5.44;76.31;98612.03;10422802;28;20108;-50
2022/12/30 20:21:39;;;;;;;177.75;103.85;;;;;;;5.36;76.55;98605.75;10432248;28;20076;-52
2022/12/30 20:26:40;;;;;;;202.70;120.60;;;;;;;5.34;76.55;98602.25;10431350;28;20574;-54
2022/12/30 20:31:48;;;;;;;217.00;133.65;;;;;;;5.22;77.30;98607.00;10433851;28;20119;-51
2022/12/30 20:36:48;;;;;;;210.13;134.20;;;;;;;5.15;77.51;98623.03;10428744;28;20297;-51
2022/12/30 20:41:48;;;;;;;219.45;138.80;;;;;;;5.19;77.55;98609.47;10434651;28;20074;-53
2022/12/30 20:46:48;;;;;;;197.90;127.15;;;;;;;5.13;77.81;98618.72;10441109;28;20554;-53
2022/12/30 20:51:47;;;;;;;170.85;110.55;;;;;;;5.13;77.98;98618.72;10441380;28;20148;-52
2022/12/30 20:56:46;;;;;;;;;;;;;;;5.08;77.97;98620.25;10407140;28;20115;-54
2022/12/30 21:01:48;;;;;;;127.53;81.97;;;;;;;5.13;77.68;98615.25;10439810;28;19957;-55
2022/12/30 21:06:48;;;;;;;125.03;77.45;;;;;;;5.11;77.70;98620.38;10430422;28;20143;-56
2022/12/30 21:11:47;;;;;;;151.02;94.90;;;;;;;5.03;78.50;98639.78;10445883;28;20144;-53
2022/12/30 21:16:47;;;;;;;150.88;98.35;;;;;;;5.04;78.45;98635.53;10422993;28;20577;-53
2022/12/30 21:21:46;;;;;;;;;;;;;;;5.06;78.59;98641.59;10441523;28;20103;-51
2022/12/30 21:26:45;;;;;;;130.50;83.45;;;;;;;5.12;78.63;98644.41;10437952;28;19912;-52
2022/12/30 21:31:45;;;;;;;128.80;85.07;;;;;;;5.08;78.72;98635.69;10447360;28;20027;-53
2022/12/30 21:36:44;;;;;;;107.68;71.22;;;;;;;5.16;78.76;98653.97;10438737;28;20064;-52
2022/12/30 22:03:08;;;;;;;187.68;122.97;;;;;;;5.16;79.52;98648.84;10425503;28;20075;-52
2022/12/30 22:08:19;;;;;;;183.38;121.50;;;;;;;5.28;79.61;98638.09;10438611;28;20511;-52
2022/12/30 22:13:28;;;;;;;118.95;77.22;;;;;;;5.23;79.69;98637.06;10440030;28;20068;-53
2022/12/30 22:18:35;;;;;;;135.18;88.53;;;;;;;5.22;79.37;98637.88;10428609;28;20076;-52
2022/12/30 22:23:38;;;;;;;152.68;101.75;;;;;;;5.10;79.75;98639.19;10414170;28;20056;-53
2022/12/30 22:28:37;;;;;;;142.25;95.55;;;;;;;5.04;79.95;98644.13;10429139;28;20055;-53
2022/12/30 22:33:36;;;;;;;146.80;99.60;;;;;;;5.05;79.74;98643.31;10446960;28;20036;-50
2022/12/30 22:38:35;;;;;;;149.98;99.88;;;;;;;5.09;79.75;98642.59;10439017;28;20481;-50
2022/12/30 22:43:35;;;;;;;157.40;104.70;;;;;;;5.07;79.29;98644.25;10437163;28;20055;-53
2022/12/30 22:48:34;;;;;;;140.02;89.93;;;;;;;5.05;79.26;98638.16;10444950;28;20099;-51
2022/12/30 22:53:33;;;;;;;133.18;84.57;;;;;;;5.04;79.44;98649.28;10439577;28;20067;-50
2022/12/30 22:58:32;;;;;;;136.52;88.90;;;;;;;5.04;79.82;98643.25;10430605;28;20119;-52
2022/12/30 23:03:32;;;;;;;136.52;93.50;;;;;;;5.01;80.04;98632.84;10419179;28;20059;-50
2022/12/30 23:08:31;;;;;;;;;;;;;;;5.03;80.28;98642.38;10432542;28;20135;-53
2022/12/30 23:18:57;;;;;;;130.30;84.07;;;;;;;4.84;81.31;98643.38;10443454;28;20572;-53
2022/12/30 23:29:16;;;;;;;115.82;78.18;;;;;;;4.95;81.02;98642.91;10436480;28;20435;-53
2022/12/30 23:34:15;;;;;;;117.15;75.30;;;;;;;4.96;81.14;98630.13;10435839;28;20131;-53
2022/12/30 23:39:15;;;;;;;117.43;75.05;;;;;;;5.06;80.76;98646.75;10449478;28;20063;-52
2022/12/30 23:44:14;;;;;;;121.65;85.20;;;;;;;4.94;80.95;98649.75;10435670;28;20079;-53
2022/12/30 23:49:13;;;;;;;107.70;73.47;;;;;;;4.83;81.30;98651.94;10433749;28;20036;-53
2022/12/30 23:54:12;;;;;;;126.30;83.63;;;;;;;4.79;81.05;98654.34;10437037;28;20059;-52
2022/12/30 23:59:11;;;;;;;109.45;67.25;;;;;;;4.67;81.75;98660.78;10438766;28;20031;-53
